Elkhart, IN

4:16 AM EDT on May 05, 2015 (GMT -0400)
Elkhart North Point | | Change Station
CLOSE
Current Station
Personal Weather Station
Location: Elkhart, IN
Elevation: 778 ft
Nearby Weather Stations

Elev 778 ft 41.76 °N, 85.99 °W | Updated 11 seconds ago

Partly Cloudy
Partly Cloudy
58.9 °F
Feels Like 58.9 °F
N
0.0
Wind Variable Wind from WNW
Gusts 0.0 mph

Today
High -- | Low -- °F
--% Chance of Precip.
Yesterday
High -- | Low -- °F
Precip. -- in
6:35 AM 8:46 PM
Full, 99% visible
Pressure 30.18 in
Visibility 1.8 miles
Clouds Few 1800 ft
Mostly Cloudy 2500 ft
Overcast 6500 ft
Dew Point 56 °F
Humidity 90%
Rainfall 0.00 in
Snow Depth Not available.
UV 0 out of 12
Pollen 5.20 out of 12
Air Quality Not available.
Flu Activity Local Activity
SPECI KGSH 050804Z AUTO 14004KT 1 3/4SM BR FEW018 BKN025 OVC065 15/14 A3018 RMK AO2 T01500139

More Conditions Fewer Conditions

Pressure 30.18 in
Visibility 1.8 miles
Clouds Few 1800 ft
Mostly Cloudy 2500 ft
Overcast 6500 ft
Dew Point 56 °F
Humidity 90%
Rainfall 0.00 in
Snow Depth Not available.
UV 0 out of 12
Pollen 5.20 out of 12
Air Quality Not available.
Flu Activity Local Activity
SPECI KGSH 050804Z AUTO 14004KT 1 3/4SM BR FEW018 BKN025 OVC065 15/14 A3018 RMK AO2 T01500139

More Conditions Fewer Conditions

Nepal has a long way to go to dig out and rebuild from a devastating earthquake. We have teamed up with several charities and organizations to make contributing to the relief effort as easy as possible.
How you can help: Portlight Strategies | Red Cross

10-Day Weather Forecast

Almanac

Astronomy

May. 05, 2015 Rise Set
Actual Time
Civil Twilight
Nautical Twilight
Astronomical Twilight
Moon
Length of Visible Light
Length of Day
Tomorrow will be .
, % of the Moon is Illuminated

Today's Extremes

State Highs State Lows

Community

WunderPhotos

Upload Photos

1,818,814 photos uploaded!

WunderBlogs® & News

Nearby

Air Quality

  Air Quality AQ Index Pollutant
Not available.

Snow Depth

Station Depth Elevation

Earthquake Activity

City Distance Mag. Time & Date
Minimum magnitude displayed is 2.5.

Coastal Water Temperatures

Place Temperature

Stations

Nearby Weather Stations

Station Location Temp. Windchill Dew Point Humidity Wind Precip. Elev Updated Type